createdAt,value
2018-12-16T00:03:34.449Z,27.73
2018-12-16T00:06:39.033Z,24.40
2018-12-16T00:09:44.127Z,20.33
2018-12-16T00:12:48.715Z,24.47
2018-12-16T00:15:53.429Z,23.03
2018-12-16T00:18:58.046Z,25.87
2018-12-16T00:22:02.678Z,24.07
2018-12-16T00:25:08.534Z,25.53
2018-12-16T00:28:13.185Z,23.40
2018-12-16T00:31:17.897Z,24.20
2018-12-16T00:34:22.719Z,24.43
2018-12-16T00:37:27.894Z,24.77
2018-12-16T00:40:32.527Z,24.23
2018-12-16T00:43:37.116Z,23.97
2018-12-16T00:46:41.722Z,24.43
2018-12-16T00:49:46.411Z,26.73
2018-12-16T00:52:51.037Z,27.57
2018-12-16T00:55:55.625Z,29.83
2018-12-16T00:59:00.124Z,28.23
2018-12-16T01:02:07.156Z,21.60
2018-12-16T01:05:12.297Z,27.07
2018-12-16T01:08:16.923Z,23.33
2018-12-16T01:11:21.461Z,22.17
2018-12-16T01:14:26.183Z,23.47
2018-12-16T01:17:30.767Z,23.23
2018-12-16T01:20:35.438Z,21.53
2018-12-16T01:23:40.003Z,20.87
2018-12-16T01:26:44.586Z,26.93
2018-12-16T01:29:49.254Z,27.83
2018-12-16T01:32:53.849Z,26.87
2018-12-16T01:35:58.825Z,19.80
2018-12-16T01:39:03.735Z,26.13
2018-12-16T01:42:08.413Z,25.33
2018-12-16T01:45:12.992Z,23.70
2018-12-16T01:48:17.565Z,24.07
2018-12-16T01:51:22.142Z,23.37
2018-12-16T01:54:26.686Z,24.77
2018-12-16T01:57:31.242Z,19.30
2018-12-16T02:00:35.855Z,22.53
2018-12-16T02:03:40.538Z,23.47
2018-12-16T02:06:45.317Z,27.97
2018-12-16T02:09:50.029Z,23.43
2018-12-16T02:12:54.628Z,25.07
2018-12-16T02:15:59.605Z,24.37
2018-12-16T02:19:04.822Z,22.63
2018-12-16T02:22:09.480Z,26.13
2018-12-16T02:25:14.141Z,20.40
2018-12-16T02:28:18.852Z,25.23
2018-12-16T02:31:23.336Z,23.53
2018-12-16T02:34:27.932Z,20.87
2018-12-16T02:37:32.891Z,22.83
2018-12-16T02:40:37.474Z,23.73
2018-12-16T02:43:42.294Z,23.37
2018-12-16T02:46:46.902Z,24.60
2018-12-16T02:49:51.567Z,20.03
2018-12-16T02:53:04.294Z,21.53
2018-12-16T02:56:03.488Z,20.70
2018-12-16T02:59:10.876Z,20.77
2018-12-16T03:02:15.499Z,20.83
2018-12-16T03:05:20.200Z,24.53
2018-12-16T03:08:24.746Z,22.67
2018-12-16T03:11:29.330Z,18.93
2018-12-16T03:14:34.861Z,19.97
2018-12-16T03:17:39.564Z,23.50
2018-12-16T03:20:44.244Z,23.80
2018-12-16T03:23:48.914Z,20.60
2018-12-16T03:26:54.608Z,21.97
2018-12-16T03:29:59.217Z,19.80
2018-12-16T03:33:04.979Z,19.37
2018-12-16T03:36:09.861Z,22.80
2018-12-16T03:39:14.454Z,20.63
2018-12-16T03:42:19.065Z,22.90
2018-12-16T03:45:23.592Z,22.83
2018-12-16T03:48:28.136Z,24.00
2018-12-16T03:51:32.645Z,24.83
2018-12-16T03:54:37.333Z,20.70
2018-12-16T03:57:41.959Z,22.33
2018-12-16T04:00:46.563Z,25.23
2018-12-16T04:03:51.257Z,23.90
2018-12-16T04:06:56.373Z,23.90
2018-12-16T04:10:00.962Z,24.10
2018-12-16T04:13:05.525Z,23.07
2018-12-16T04:16:10.140Z,18.47
2018-12-16T04:19:14.767Z,20.37
2018-12-16T04:22:19.454Z,23.70
2018-12-16T04:25:24.098Z,23.53
2018-12-16T04:28:28.948Z,22.63
2018-12-16T04:31:33.597Z,23.40
2018-12-16T04:34:38.099Z,22.57
2018-12-16T04:37:42.749Z,24.73
2018-12-16T04:40:47.380Z,26.40
2018-12-16T04:43:51.874Z,23.07
2018-12-16T04:46:56.485Z,25.60
2018-12-16T04:50:01.184Z,25.20
2018-12-16T04:53:05.731Z,27.57
2018-12-16T04:56:10.303Z,24.60
2018-12-16T04:59:14.943Z,24.13
2018-12-16T05:02:19.562Z,25.53
2018-12-16T05:05:24.138Z,21.47
2018-12-16T05:08:28.866Z,23.83
2018-12-16T05:14:47.801Z,26.03
2018-12-16T05:17:52.462Z,21.63
2018-12-16T05:20:57.153Z,25.30
2018-12-16T05:24:01.773Z,24.73
2018-12-16T05:27:06.355Z,24.07
2018-12-16T05:33:25.650Z,24.77
2018-12-16T05:36:30.284Z,25.40
2018-12-16T05:39:34.993Z,23.53
2018-12-16T05:42:39.620Z,24.53
2018-12-16T05:45:44.250Z,22.93
2018-12-16T05:48:48.910Z,27.00
2018-12-16T05:51:53.462Z,24.37
2018-12-16T05:54:58.103Z,24.27
2018-12-16T05:58:02.704Z,24.67
2018-12-16T06:01:07.584Z,25.67
2018-12-16T06:04:12.253Z,26.07
2018-12-16T06:07:17.016Z,23.80
2018-12-16T06:10:21.638Z,24.60
2018-12-16T06:13:26.298Z,24.73
2018-12-16T06:16:30.997Z,26.80
2018-12-16T06:19:35.528Z,24.33
2018-12-16T06:22:40.233Z,26.50
2018-12-16T06:25:44.853Z,25.77
2018-12-16T06:28:49.513Z,28.33
2018-12-16T06:31:55.300Z,26.07
2018-12-16T06:35:00.297Z,24.80
2018-12-16T06:38:05.784Z,27.17
2018-12-16T06:41:10.400Z,27.40
2018-12-16T06:44:15.088Z,32.23
2018-12-16T06:47:19.715Z,27.60
2018-12-16T06:50:24.253Z,26.30
2018-12-16T06:53:28.925Z,29.33
2018-12-16T06:56:33.515Z,27.47
2018-12-16T06:59:38.114Z,27.20
2018-12-16T07:02:42.912Z,23.00
2018-12-16T07:05:48.236Z,24.33
2018-12-16T07:08:52.939Z,26.37
2018-12-16T07:11:57.580Z,28.50
2018-12-16T07:15:02.395Z,30.50
2018-12-16T07:18:07.237Z,24.33
2018-12-16T07:21:11.704Z,30.30
2018-12-16T07:24:16.313Z,25.17
2018-12-16T07:27:21.010Z,27.30
2018-12-16T07:30:27.597Z,25.73
2018-12-16T07:33:32.311Z,52.93
2018-12-16T07:36:37.654Z,61.00
2018-12-16T07:39:43.919Z,40.77
2018-12-16T07:42:48.716Z,49.50
2018-12-16T07:45:53.279Z,43.53
2018-12-16T07:48:58.122Z,33.80
2018-12-16T07:52:02.969Z,36.07
2018-12-16T07:55:09.165Z,30.50
2018-12-16T07:58:13.908Z,25.57
2018-12-16T08:04:33.195Z,28.57
2018-12-16T08:07:37.904Z,30.17
2018-12-16T08:10:42.575Z,27.73
2018-12-16T08:13:47.982Z,27.20
2018-12-16T08:16:52.592Z,25.33
2018-12-16T08:19:57.338Z,27.07
2018-12-16T08:23:01.981Z,29.37
2018-12-16T08:26:07.133Z,27.90
2018-12-16T08:29:11.687Z,31.40
2018-12-16T08:32:16.398Z,27.47
2018-12-16T08:35:20.986Z,28.20
2018-12-16T08:38:25.722Z,33.67
2018-12-16T08:41:30.456Z,34.65
2018-12-16T08:44:35.007Z,35.17
2018-12-16T08:47:39.603Z,32.70
2018-12-16T08:50:44.302Z,36.33
2018-12-16T08:53:48.941Z,27.57
2018-12-16T08:56:53.624Z,29.20
2018-12-16T08:59:58.268Z,30.43
2018-12-16T09:03:03.364Z,47.47
2018-12-16T09:06:08.001Z,43.80
2018-12-16T09:09:12.918Z,52.93
2018-12-16T09:12:17.445Z,32.50
2018-12-16T09:15:22.105Z,34.10
2018-12-16T09:18:26.630Z,32.30
2018-12-16T09:21:31.316Z,51.27
2018-12-16T09:24:37.386Z,41.27
2018-12-16T09:27:42.293Z,35.27
2018-12-16T09:30:57.702Z,32.77
2018-12-16T09:33:57.315Z,36.83
2018-12-16T09:37:02.168Z,36.73
2018-12-16T09:40:07.890Z,35.10
2018-12-16T09:43:12.698Z,29.23
2018-12-16T09:46:17.414Z,31.03
2018-12-16T09:49:22.133Z,30.83
2018-12-16T09:52:26.798Z,31.43
2018-12-16T09:55:31.513Z,33.90
2018-12-16T09:58:36.108Z,31.93
2018-12-16T10:01:40.796Z,36.90
2018-12-16T10:04:45.445Z,38.93
2018-12-16T10:11:04.123Z,29.60
2018-12-16T10:14:08.817Z,29.80
2018-12-16T10:17:13.522Z,39.10
2018-12-16T10:20:18.286Z,35.90
2018-12-16T10:23:22.942Z,35.63
2018-12-16T10:26:27.705Z,32.93
2018-12-16T10:29:32.370Z,29.07
2018-12-16T10:32:36.931Z,34.37
2018-12-16T10:35:41.777Z,28.87
2018-12-16T10:38:46.451Z,34.03
2018-12-16T10:41:51.255Z,27.33
2018-12-16T10:44:55.881Z,32.07
2018-12-16T10:48:00.604Z,31.33
2018-12-16T10:51:05.331Z,33.85
2018-12-16T10:54:10.017Z,33.60
2018-12-16T10:57:14.636Z,33.57
2018-12-16T11:00:24.369Z,29.90
2018-12-16T11:03:28.911Z,31.27
2018-12-16T11:06:33.534Z,39.00
2018-12-16T11:09:38.182Z,34.03
2018-12-16T11:12:43.263Z,35.50
2018-12-16T11:15:48.649Z,33.50
2018-12-16T11:18:53.159Z,32.53
2018-12-16T11:21:57.713Z,31.33
2018-12-16T11:25:05.566Z,34.37
2018-12-16T11:28:08.785Z,35.00
2018-12-16T11:34:28.091Z,35.70
2018-12-16T11:37:32.728Z,36.30
2018-12-16T11:40:37.289Z,31.50
2018-12-16T11:43:41.860Z,38.40
2018-12-16T11:46:46.467Z,30.67
2018-12-16T11:49:50.981Z,35.50
2018-12-16T11:52:55.482Z,28.43
2018-12-16T11:56:00.577Z,33.50
2018-12-16T11:59:05.268Z,30.20
2018-12-16T12:02:09.920Z,28.17
2018-12-16T12:05:14.445Z,33.90
2018-12-16T12:08:18.971Z,29.20
2018-12-16T12:11:23.599Z,32.53
2018-12-16T12:14:28.158Z,34.50
2018-12-16T12:17:32.738Z,31.50
2018-12-16T12:20:37.289Z,34.73
2018-12-16T12:23:42.180Z,33.13
2018-12-16T12:26:46.937Z,29.30
2018-12-16T12:29:51.482Z,31.47
2018-12-16T12:32:56.113Z,34.07
2018-12-16T12:36:00.933Z,35.77
2018-12-16T12:39:07.650Z,32.80
2018-12-16T12:42:12.125Z,29.47
2018-12-16T12:45:16.799Z,35.27
2018-12-16T12:48:21.715Z,31.80
2018-12-16T12:51:26.279Z,41.57
2018-12-16T12:54:30.881Z,34.47
2018-12-16T12:57:35.553Z,33.27
2018-12-16T13:00:40.242Z,30.60
2018-12-16T13:03:44.934Z,29.87
2018-12-16T13:06:49.540Z,30.97
2018-12-16T13:09:54.259Z,45.47
2018-12-16T13:12:59.074Z,32.37
2018-12-16T13:16:03.766Z,34.17
2018-12-16T13:19:08.350Z,35.30
2018-12-16T13:22:12.948Z,34.80
2018-12-16T13:25:35.723Z,40.37
2018-12-16T13:28:40.464Z,38.47
2018-12-16T13:31:45.170Z,38.93
2018-12-16T13:34:49.843Z,38.90
2018-12-16T13:37:54.462Z,37.83
2018-12-16T13:40:59.169Z,36.90
2018-12-16T13:44:03.974Z,36.57
2018-12-16T13:47:08.689Z,38.30
2018-12-16T13:50:13.410Z,37.37
2018-12-16T13:53:17.959Z,37.07
2018-12-16T13:56:22.642Z,38.07
2018-12-16T13:59:27.185Z,44.20
2018-12-16T14:02:31.915Z,40.73
2018-12-16T14:05:36.658Z,39.33
2018-12-16T14:08:41.355Z,45.80
2018-12-16T14:11:46.084Z,43.53
2018-12-16T14:14:50.738Z,42.23
2018-12-16T14:17:55.322Z,36.33
2018-12-16T14:20:59.951Z,36.83
2018-12-16T14:24:04.677Z,38.43
2018-12-16T14:27:09.368Z,39.90
2018-12-16T14:30:14.282Z,43.47
2018-12-16T14:33:19.015Z,49.63
2018-12-16T14:36:23.614Z,40.17
2018-12-16T14:39:31.010Z,43.43
2018-12-16T14:42:35.577Z,46.00
2018-12-16T14:45:40.276Z,39.97
2018-12-16T14:48:45.044Z,35.77
2018-12-16T14:51:49.588Z,41.80
2018-12-16T14:54:54.566Z,41.00
2018-12-16T14:57:59.209Z,47.70
2018-12-16T15:01:03.894Z,46.37
2018-12-16T15:04:08.518Z,45.37
2018-12-16T15:07:13.274Z,40.77
2018-12-16T15:10:17.931Z,45.63
2018-12-16T15:13:22.882Z,40.23
2018-12-16T15:16:27.576Z,39.83
2018-12-16T15:19:32.444Z,38.97
2018-12-16T15:22:37.246Z,39.80
2018-12-16T15:25:41.895Z,38.23
2018-12-16T15:28:46.573Z,47.17
2018-12-16T15:31:51.188Z,39.40
2018-12-16T15:34:55.913Z,39.30
2018-12-16T15:38:00.731Z,41.77
2018-12-16T15:41:05.690Z,42.60
2018-12-16T15:44:10.461Z,40.27
2018-12-16T15:47:15.218Z,42.03
2018-12-16T15:50:19.790Z,42.33
2018-12-16T15:53:24.500Z,42.63
2018-12-16T15:56:29.790Z,45.33
2018-12-16T15:59:34.386Z,45.10
2018-12-16T16:02:39.165Z,44.97
2018-12-16T16:05:44.166Z,48.33
2018-12-16T16:08:49.717Z,45.43
2018-12-16T16:11:54.499Z,44.00
2018-12-16T16:14:59.202Z,43.27
2018-12-16T16:18:03.945Z,42.70
2018-12-16T16:21:08.446Z,39.33
2018-12-16T16:24:13.175Z,45.83
2018-12-16T16:27:17.934Z,40.17
2018-12-16T16:30:22.573Z,36.80
2018-12-16T16:33:27.385Z,45.50
2018-12-16T16:36:32.257Z,44.97
2018-12-16T16:39:36.763Z,42.70
2018-12-16T16:42:41.381Z,48.50
2018-12-16T16:45:46.263Z,46.33
2018-12-16T16:48:51.245Z,56.47
2018-12-16T16:51:56.353Z,54.27
2018-12-16T16:55:01.117Z,50.00
2018-12-16T16:58:05.773Z,57.83
2018-12-16T17:01:10.407Z,62.87
2018-12-16T17:04:15.023Z,45.60
2018-12-16T17:07:19.712Z,55.70
2018-12-16T17:13:44.116Z,59.57
2018-12-16T17:16:48.869Z,49.77
2018-12-16T17:19:53.694Z,48.77
2018-12-16T17:22:58.351Z,46.67
2018-12-16T17:26:03.255Z,49.47
2018-12-16T17:29:07.963Z,47.07
2018-12-16T17:32:12.579Z,50.63
2018-12-16T17:35:17.239Z,52.47
2018-12-16T17:38:21.945Z,47.20
2018-12-16T17:41:26.688Z,47.13
2018-12-16T17:44:31.489Z,42.40
2018-12-16T17:47:36.391Z,48.20
2018-12-16T17:50:41.245Z,45.17
2018-12-16T17:53:45.899Z,44.20
2018-12-16T17:56:50.663Z,47.73
2018-12-16T17:59:55.602Z,46.90
2018-12-16T18:03:00.454Z,48.20
2018-12-16T18:06:05.089Z,50.23
2018-12-16T18:09:10.920Z,47.53
2018-12-16T18:12:15.659Z,43.80
2018-12-16T18:15:20.628Z,44.63
2018-12-16T18:18:25.402Z,46.70
2018-12-16T18:21:30.241Z,43.80
2018-12-16T18:24:34.790Z,48.40
2018-12-16T18:27:39.527Z,51.20
2018-12-16T18:30:44.245Z,51.30
2018-12-16T18:33:48.876Z,50.47
2018-12-16T18:36:53.451Z,50.67
2018-12-16T18:39:58.335Z,54.77
2018-12-16T18:43:03.060Z,48.47
2018-12-16T18:46:08.076Z,47.27
2018-12-16T18:49:12.883Z,50.37
2018-12-16T18:52:17.584Z,50.63
2018-12-16T18:55:22.289Z,47.97
2018-12-16T18:58:26.863Z,49.90
2018-12-16T19:01:31.534Z,44.00
2018-12-16T19:04:36.263Z,47.17
2018-12-16T19:07:41.158Z,52.17
2018-12-16T19:10:45.811Z,54.27
2018-12-16T19:13:50.730Z,50.90
2018-12-16T19:16:55.485Z,57.63
2018-12-16T19:20:00.052Z,46.47
2018-12-16T19:23:04.713Z,49.83
2018-12-16T19:26:09.313Z,49.57
2018-12-16T19:29:13.898Z,44.63
2018-12-16T19:32:18.563Z,48.33
2018-12-16T19:35:23.299Z,60.70
2018-12-16T19:38:27.939Z,50.83
2018-12-16T19:41:32.484Z,45.83
2018-12-16T19:44:37.008Z,47.67
2018-12-16T19:47:41.629Z,46.93
2018-12-16T19:50:46.493Z,49.63
2018-12-16T19:53:51.092Z,53.50
2018-12-16T19:56:55.705Z,55.60
2018-12-16T20:00:00.387Z,48.87
2018-12-16T20:03:05.083Z,46.43
2018-12-16T20:06:15.023Z,44.73
2018-12-16T20:09:19.732Z,48.57
2018-12-16T20:12:24.313Z,51.70
2018-12-16T20:15:29.033Z,49.90
2018-12-16T20:18:33.689Z,49.70
2018-12-16T20:21:38.724Z,49.80
2018-12-16T20:24:43.310Z,48.70
2018-12-16T20:27:47.881Z,59.13
2018-12-16T20:30:53.150Z,48.23
2018-12-16T20:33:57.837Z,54.93
2018-12-16T20:37:02.499Z,52.17
2018-12-16T20:40:08.340Z,49.70
2018-12-16T20:43:12.985Z,52.77
2018-12-16T20:46:17.642Z,52.93
2018-12-16T20:49:22.313Z,47.73
2018-12-16T20:52:26.891Z,51.43
2018-12-16T20:55:31.510Z,52.60
2018-12-16T20:58:36.181Z,46.77
2018-12-16T21:01:40.829Z,49.40
2018-12-16T21:04:45.443Z,46.00
2018-12-16T21:07:50.009Z,48.23
2018-12-16T21:10:54.572Z,50.67
2018-12-16T21:14:04.497Z,48.30
2018-12-16T21:17:14.488Z,47.73
2018-12-16T21:20:19.163Z,51.27
2018-12-16T21:23:24.227Z,48.40
2018-12-16T21:26:28.894Z,49.93
2018-12-16T21:29:33.542Z,49.20
2018-12-16T21:32:38.077Z,45.97
2018-12-16T21:35:42.727Z,45.97
2018-12-16T21:38:47.208Z,48.37
2018-12-16T21:41:51.825Z,51.07
2018-12-16T21:44:56.448Z,48.73
2018-12-16T21:48:01.014Z,56.73
2018-12-16T21:51:05.797Z,49.07
2018-12-16T21:54:10.352Z,46.70
2018-12-16T21:57:14.969Z,45.60
2018-12-16T22:00:19.561Z,47.20
2018-12-16T22:03:24.170Z,49.87
2018-12-16T22:06:28.797Z,50.97
2018-12-16T22:09:33.314Z,51.77
2018-12-16T22:12:37.993Z,43.33
2018-12-16T22:15:42.579Z,45.40
2018-12-16T22:18:47.272Z,48.50
2018-12-16T22:21:51.873Z,45.33
2018-12-16T22:24:56.476Z,47.23
2018-12-16T22:28:01.114Z,45.73
2018-12-16T22:31:05.670Z,51.17
2018-12-16T22:34:10.317Z,54.57
2018-12-16T22:37:15.110Z,53.77
2018-12-16T22:40:19.883Z,48.57
2018-12-16T22:43:24.440Z,54.37
2018-12-16T22:46:29.434Z,45.50
2018-12-16T22:49:34.199Z,47.03
2018-12-16T22:52:38.862Z,50.97
2018-12-16T22:55:43.479Z,46.37
2018-12-16T22:58:54.201Z,48.43
2018-12-16T23:01:54.706Z,45.30
2018-12-16T23:04:59.294Z,44.03
2018-12-16T23:08:03.976Z,49.03
2018-12-16T23:11:08.520Z,55.10
2018-12-16T23:14:13.196Z,54.50
2018-12-16T23:17:17.791Z,47.20
2018-12-16T23:20:24.468Z,46.97
2018-12-16T23:23:29.085Z,53.03
2018-12-16T23:26:33.665Z,45.80
2018-12-16T23:29:38.163Z,45.83
2018-12-16T23:32:42.669Z,55.53
2018-12-16T23:35:47.260Z,58.23
2018-12-16T23:38:51.802Z,50.77
2018-12-16T23:41:56.337Z,54.73
2018-12-16T23:45:00.840Z,55.43
2018-12-16T23:48:05.397Z,56.87
2018-12-16T23:51:10.103Z,45.67
2018-12-16T23:54:14.616Z,54.23
2018-12-16T23:57:19.088Z,55.63
